createdAt,value
2018-05-03T00:00:16.759Z,55.5
2018-05-03T00:01:16.812Z,55.6
2018-05-03T00:02:17.088Z,55.6
2018-05-03T00:03:16.353Z,55.6
2018-05-03T00:04:16.623Z,56.2
2018-05-03T00:05:16.894Z,56.3
2018-05-03T00:06:17.157Z,56.4
2018-05-03T00:07:16.425Z,56.4
2018-05-03T00:08:16.687Z,56.9
2018-05-03T00:09:17.025Z,56.9
2018-05-03T00:10:17.285Z,56.9
2018-05-03T00:11:16.348Z,57.0
2018-05-03T00:12:16.614Z,57.0
2018-05-03T00:13:16.877Z,57.0
2018-05-03T00:14:17.190Z,57.0
2018-05-03T00:15:16.475Z,57.5
2018-05-03T00:16:16.737Z,57.5
2018-05-03T00:17:16.998Z,57.6
2018-05-03T00:18:17.393Z,57.5
2018-05-03T00:19:16.674Z,57.6
2018-05-03T00:20:16.951Z,57.8
2018-05-03T00:21:16.994Z,57.7
2018-05-03T00:22:17.249Z,57.6
2018-05-03T00:23:16.516Z,57.6
2018-05-03T00:24:16.782Z,57.6
2018-05-03T00:25:17.043Z,58.1
2018-05-03T00:26:17.306Z,57.6
2018-05-03T00:27:16.568Z,57.9
2018-05-03T00:28:17.418Z,57.8
2018-05-03T00:29:16.677Z,57.6
2018-05-03T00:30:16.953Z,57.6
2018-05-03T00:31:17.010Z,57.7
2018-05-03T00:32:17.279Z,58.1
2018-05-03T00:33:16.558Z,58.1
2018-05-03T00:34:16.819Z,58.2
2018-05-03T00:35:17.076Z,58.1
2018-05-03T00:36:16.345Z,58.2
2018-05-03T00:37:16.610Z,58.2
2018-05-03T00:38:16.866Z,58.1
2018-05-03T00:39:17.127Z,58.1
2018-05-03T00:40:16.400Z,58.2
2018-05-03T00:41:16.434Z,58.2
2018-05-03T00:42:16.695Z,58.2
2018-05-03T00:43:16.958Z,58.2
2018-05-03T00:44:17.214Z,58.2
2018-05-03T00:45:16.488Z,58.2
2018-05-03T00:46:16.745Z,58.2
2018-05-03T00:47:17.010Z,58.2
2018-05-03T00:48:17.286Z,58.1
2018-05-03T00:49:16.560Z,58.1
2018-05-03T00:50:16.830Z,58.1
2018-05-03T00:51:17.142Z,58.2
2018-05-03T00:52:16.397Z,58.2
2018-05-03T00:53:16.656Z,58.1
2018-05-03T00:54:16.916Z,58.2
2018-05-03T00:55:17.172Z,58.2
2018-05-03T00:56:16.446Z,57.7
2018-05-03T00:57:16.710Z,57.8
2018-05-03T00:58:16.972Z,57.8
2018-05-03T00:59:17.238Z,57.8
2018-05-03T01:00:16.509Z,57.8
2018-05-03T01:01:16.541Z,57.9
2018-05-03T01:02:16.800Z,57.9
2018-05-03T01:03:17.071Z,57.8
2018-05-03T01:04:16.332Z,57.9
2018-05-03T01:05:16.594Z,57.9
2018-05-03T01:06:16.873Z,57.9
2018-05-03T01:07:17.138Z,58.4
2018-05-03T01:08:16.392Z,58.5
2018-05-03T01:09:16.651Z,58.4
2018-05-03T01:10:16.916Z,58.5
2018-05-03T01:11:16.968Z,58.4
2018-05-03T01:12:17.226Z,58.6
2018-05-03T01:13:16.481Z,58.6
2018-05-03T01:14:16.746Z,58.8
2018-05-03T01:15:17.016Z,58.9
2018-05-03T01:16:17.294Z,59.4
2018-05-03T01:17:16.564Z,59.5
2018-05-03T01:18:16.815Z,59.5
2018-05-03T01:19:17.085Z,59.6
2018-05-03T01:20:16.361Z,59.6
2018-05-03T01:21:16.399Z,59.8
2018-05-03T01:22:16.667Z,59.8
2018-05-03T01:23:16.926Z,59.8
2018-05-03T01:24:17.186Z,59.8
2018-05-03T01:25:16.443Z,60.2
2018-05-03T01:26:16.712Z,60.2
2018-05-03T01:27:16.970Z,60.3
2018-05-03T01:28:17.511Z,60.1
2018-05-03T01:29:16.782Z,60.2
2018-05-03T01:30:17.054Z,60.2
2018-05-03T01:31:17.097Z,59.8
2018-05-03T01:32:16.358Z,59.5
2018-05-03T01:33:16.636Z,59.4
2018-05-03T01:34:16.888Z,59.5
2018-05-03T01:35:17.151Z,59.4
2018-05-03T01:36:16.410Z,59.4
2018-05-03T01:37:16.671Z,59.5
2018-05-03T01:38:16.937Z,59.6
2018-05-03T01:39:17.199Z,59.7
2018-05-03T01:40:16.480Z,59.8
2018-05-03T01:41:16.527Z,59.8
2018-05-03T01:42:16.790Z,59.8
2018-05-03T01:43:17.060Z,60.3
2018-05-03T01:44:16.327Z,60.4
2018-05-03T01:45:16.584Z,60.5
2018-05-03T01:46:16.841Z,60.4
2018-05-03T01:47:17.104Z,60.5
2018-05-03T01:48:16.366Z,61.0
2018-05-03T01:49:16.624Z,61.0
2018-05-03T01:50:16.897Z,61.1
2018-05-03T01:51:16.945Z,61.1
2018-05-03T01:52:17.210Z,61.1
2018-05-03T01:53:16.469Z,61.7
2018-05-03T01:54:16.743Z,61.8
2018-05-03T01:55:17.008Z,61.9
2018-05-03T01:56:17.287Z,61.9
2018-05-03T01:57:16.537Z,61.8
2018-05-03T01:58:16.795Z,61.8
2018-05-03T01:59:17.057Z,61.9
2018-05-03T02:00:17.323Z,62.1
2018-05-03T02:01:16.367Z,62.1
2018-05-03T02:02:16.623Z,62.6
2018-05-03T02:03:16.882Z,62.6
2018-05-03T02:04:17.147Z,62.6
2018-05-03T02:05:16.407Z,62.8
2018-05-03T02:06:16.671Z,62.8
2018-05-03T02:07:16.937Z,62.9
2018-05-03T02:08:17.204Z,63.2
2018-05-03T02:09:16.470Z,63.2
2018-05-03T02:10:16.770Z,63.2
2018-05-03T02:11:16.784Z,63.3
2018-05-03T02:12:17.045Z,63.4
2018-05-03T02:13:17.312Z,63.4
2018-05-03T02:14:16.575Z,64.0
2018-05-03T02:15:16.830Z,64.0
2018-05-03T02:16:17.096Z,64.0
2018-05-03T02:17:16.367Z,64.0
2018-05-03T02:18:16.634Z,64.0
2018-05-03T02:19:16.989Z,64.0
2018-05-03T02:20:17.250Z,64.5
2018-05-03T02:21:17.298Z,64.5
2018-05-03T02:22:16.562Z,64.6
2018-05-03T02:23:16.825Z,65.2
2018-05-03T02:24:17.093Z,65.2
2018-05-03T02:25:16.363Z,65.2
2018-05-03T02:26:16.626Z,65.2
2018-05-03T02:27:16.888Z,65.2
2018-05-03T02:28:17.154Z,65.8
2018-05-03T02:29:16.413Z,65.8
2018-05-03T02:30:16.685Z,65.7
2018-05-03T02:31:16.730Z,65.8
2018-05-03T02:32:17.012Z,65.5
2018-05-03T02:33:17.276Z,65.7
2018-05-03T02:34:16.549Z,65.4
2018-05-03T02:35:16.823Z,65.6
2018-05-03T02:36:17.077Z,65.3
2018-05-03T02:37:16.338Z,65.2
2018-05-03T02:38:16.615Z,65.2
2018-05-03T02:39:16.886Z,65.2
2018-05-03T02:40:17.163Z,64.5
2018-05-03T02:41:17.203Z,64.5
2018-05-03T02:42:16.458Z,64.4
2018-05-03T02:43:16.716Z,64.0
2018-05-03T02:44:16.987Z,64.0
2018-05-03T02:45:17.244Z,63.9
2018-05-03T02:46:16.507Z,63.8
2018-05-03T02:47:16.774Z,63.3
2018-05-03T02:48:17.336Z,63.4
2018-05-03T02:49:16.599Z,63.4
2018-05-03T02:50:16.868Z,63.4
2018-05-03T02:51:16.902Z,63.5
2018-05-03T02:52:17.182Z,63.5
2018-05-03T02:53:16.441Z,63.0
2018-05-03T02:54:16.713Z,62.9
2018-05-03T02:55:16.983Z,63.0
2018-05-03T02:56:17.251Z,63.5
2018-05-03T02:57:16.524Z,63.0
2018-05-03T02:58:16.872Z,63.0
2018-05-03T02:59:17.456Z,63.5
2018-05-03T03:00:16.729Z,63.0
2018-05-03T03:01:16.771Z,62.9
2018-05-03T03:02:17.150Z,62.9
2018-05-03T03:03:16.511Z,63.0
2018-05-03T03:04:16.773Z,62.8
2018-05-03T03:05:17.039Z,62.2
2018-05-03T03:06:17.333Z,62.1
2018-05-03T03:07:16.604Z,62.1
2018-05-03T03:08:16.876Z,62.2
2018-05-03T03:09:17.147Z,62.2
2018-05-03T03:10:16.428Z,62.1
2018-05-03T03:11:16.461Z,62.1
2018-05-03T03:12:16.738Z,61.6
2018-05-03T03:13:17.001Z,61.1
2018-05-03T03:14:17.264Z,61.4
2018-05-03T03:15:16.529Z,61.4
2018-05-03T03:16:16.792Z,61.4
2018-05-03T03:17:17.059Z,61.3
2018-05-03T03:18:17.644Z,61.4
2018-05-03T03:19:16.903Z,61.5
2018-05-03T03:20:17.171Z,61.5
2018-05-03T03:21:17.206Z,61.4
2018-05-03T03:22:16.466Z,61.2
2018-05-03T03:23:16.722Z,61.4
2018-05-03T03:24:16.986Z,61.4
2018-05-03T03:25:17.253Z,61.4
2018-05-03T03:26:16.514Z,61.4
2018-05-03T03:27:16.771Z,61.6
2018-05-03T03:28:17.044Z,61.6
2018-05-03T03:29:17.311Z,62.2
2018-05-03T03:30:16.707Z,62.4
2018-05-03T03:31:16.624Z,62.4
2018-05-03T03:32:16.891Z,62.5
2018-05-03T03:33:17.154Z,63.1
2018-05-03T03:34:16.407Z,63.2
2018-05-03T03:35:16.674Z,63.2
2018-05-03T03:36:16.936Z,63.4
2018-05-03T03:37:17.199Z,63.4
2018-05-03T03:38:16.464Z,64.0
2018-05-03T03:39:16.724Z,64.0
2018-05-03T03:40:16.994Z,64.0
2018-05-03T03:41:17.034Z,64.0
2018-05-03T03:42:17.302Z,64.2
2018-05-03T03:43:16.563Z,64.2
2018-05-03T03:44:16.820Z,65.0
2018-05-03T03:45:17.080Z,65.0
2018-05-03T03:46:16.335Z,65.0
2018-05-03T03:47:16.598Z,65.0
2018-05-03T03:48:16.864Z,65.1
2018-05-03T03:49:17.130Z,65.1
2018-05-03T03:50:16.399Z,65.7
2018-05-03T03:51:16.445Z,65.7
2018-05-03T03:52:16.700Z,65.8
2018-05-03T03:53:17.072Z,65.8
2018-05-03T03:54:16.338Z,65.8
2018-05-03T03:55:16.599Z,65.6
2018-05-03T03:56:16.868Z,66.3
2018-05-03T03:57:17.323Z,66.3
2018-05-03T03:58:16.595Z,66.4
2018-05-03T03:59:16.863Z,66.5
2018-05-03T04:00:17.138Z,67.2
2018-05-03T04:01:17.184Z,66.8
2018-05-03T04:02:16.461Z,66.9
2018-05-03T04:03:16.717Z,67.0
2018-05-03T04:04:16.973Z,67.5
2018-05-03T04:05:17.233Z,67.5
2018-05-03T04:06:16.519Z,67.5
2018-05-03T04:07:16.783Z,67.6
2018-05-03T04:08:17.039Z,67.7
2018-05-03T04:09:17.308Z,68.1
2018-05-03T04:10:16.580Z,68.2
2018-05-03T04:11:16.617Z,68.2
2018-05-03T04:12:16.875Z,68.0
2018-05-03T04:13:17.160Z,68.6
2018-05-03T04:14:16.430Z,68.7
2018-05-03T04:15:16.702Z,68.8
2018-05-03T04:16:16.973Z,68.8
2018-05-03T04:17:17.239Z,69.4
2018-05-03T04:18:16.493Z,69.5
2018-05-03T04:19:16.760Z,69.5
2018-05-03T04:20:17.030Z,70.0
2018-05-03T04:21:17.067Z,70.0
2018-05-03T04:22:16.599Z,70.1
2018-05-03T04:23:16.970Z,70.0
2018-05-03T04:24:17.238Z,70.1
2018-05-03T04:25:16.516Z,70.7
2018-05-03T04:26:16.795Z,70.6
2018-05-03T04:27:17.070Z,70.6
2018-05-03T04:28:16.329Z,70.5
2018-05-03T04:29:16.596Z,70.8
2018-05-03T04:30:16.873Z,70.9
2018-05-03T04:31:16.924Z,70.5
2018-05-03T04:32:17.187Z,70.8
2018-05-03T04:33:16.458Z,71.3
2018-05-03T04:34:16.719Z,71.0
2018-05-03T04:35:16.981Z,71.4
2018-05-03T04:36:17.244Z,71.6
2018-05-03T04:37:16.504Z,71.3
2018-05-03T04:38:16.765Z,71.6
2018-05-03T04:39:17.029Z,71.7
2018-05-03T04:40:17.304Z,72.0
2018-05-03T04:41:16.374Z,71.9
2018-05-03T04:42:16.636Z,71.7
2018-05-03T04:43:16.897Z,71.6
2018-05-03T04:44:17.165Z,71.9
2018-05-03T04:45:16.421Z,72.1
2018-05-03T04:46:16.703Z,72.0
2018-05-03T04:47:16.975Z,71.8
2018-05-03T04:48:17.579Z,71.6
2018-05-03T04:49:16.852Z,71.8
2018-05-03T04:50:17.116Z,71.9
2018-05-03T04:51:17.162Z,71.8
2018-05-03T04:52:16.425Z,71.8
2018-05-03T04:53:16.686Z,71.9
2018-05-03T04:54:17.241Z,71.8
2018-05-03T04:55:16.642Z,71.8
2018-05-03T04:56:16.913Z,71.8
2018-05-03T04:57:17.170Z,71.2
2018-05-03T04:58:16.429Z,71.0
2018-05-03T04:59:16.686Z,71.7
2018-05-03T05:00:16.973Z,71.6
2018-05-03T05:01:17.015Z,71.8
2018-05-03T05:02:17.286Z,71.9
2018-05-03T05:03:16.554Z,71.5
2018-05-03T05:04:16.814Z,71.2
2018-05-03T05:05:17.082Z,70.7
2018-05-03T05:06:16.337Z,70.2
2018-05-03T05:07:16.603Z,70.3
2018-05-03T05:08:16.862Z,70.3
2018-05-03T05:09:17.123Z,69.6
2018-05-03T05:10:16.399Z,69.5
2018-05-03T05:11:16.437Z,69.7
2018-05-03T05:12:16.698Z,69.5
2018-05-03T05:13:16.962Z,69.7
2018-05-03T05:14:17.236Z,69.2
2018-05-03T05:15:16.511Z,68.9
2018-05-03T05:16:16.794Z,69.0
2018-05-03T05:17:17.061Z,68.2
2018-05-03T05:18:16.335Z,68.0
2018-05-03T05:19:16.598Z,67.3
2018-05-03T05:20:16.876Z,67.0
2018-05-03T05:21:16.895Z,66.5
2018-05-03T05:22:17.215Z,66.2
2018-05-03T05:23:16.487Z,65.1
2018-05-03T05:24:16.900Z,64.2
2018-05-03T05:25:17.437Z,63.7
2018-05-03T05:26:16.696Z,63.5
2018-05-03T05:27:16.953Z,63.0
2018-05-03T05:28:17.213Z,63.0
2018-05-03T05:29:16.470Z,62.5
2018-05-03T05:30:16.754Z,62.0
2018-05-03T05:31:16.801Z,61.3
2018-05-03T05:32:17.071Z,60.9
2018-05-03T05:33:16.324Z,60.9
2018-05-03T05:34:16.585Z,60.1
2018-05-03T05:35:16.865Z,60.0
2018-05-03T05:36:17.139Z,59.5
2018-05-03T05:37:16.401Z,59.6
2018-05-03T05:38:16.657Z,59.5
2018-05-03T05:39:16.920Z,58.6
2018-05-03T05:40:17.184Z,58.4
2018-05-03T05:41:17.416Z,57.8
2018-05-03T05:42:16.686Z,57.6
2018-05-03T05:43:16.952Z,56.8
2018-05-03T05:44:17.275Z,57.0
2018-05-03T05:45:16.561Z,55.6
2018-05-03T05:46:16.820Z,55.9
2018-05-03T05:47:17.087Z,55.4
2018-05-03T05:48:16.352Z,55.1
2018-05-03T05:49:16.615Z,55.1
2018-05-03T05:50:16.893Z,55.5
2018-05-03T05:51:17.089Z,54.4
2018-05-03T05:52:16.428Z,54.4
2018-05-03T05:53:16.696Z,55.2
2018-05-03T05:54:16.968Z,55.1
2018-05-03T05:55:17.248Z,54.5
2018-05-03T05:56:16.508Z,54.2
2018-05-03T05:57:16.774Z,53.2
2018-05-03T05:58:17.038Z,53.5
2018-05-03T05:59:17.299Z,53.6
2018-05-03T06:00:16.577Z,53.1
2018-05-03T06:01:16.605Z,52.2
2018-05-03T06:02:16.869Z,52.1
2018-05-03T06:03:17.130Z,51.5
2018-05-03T06:04:16.492Z,51.6
2018-05-03T06:05:16.754Z,51.6
2018-05-03T06:06:17.011Z,51.2
2018-05-03T06:07:17.278Z,51.0
2018-05-03T06:08:16.535Z,50.5
2018-05-03T06:09:16.800Z,50.5
2018-05-03T06:10:17.170Z,49.9
2018-05-03T06:11:17.116Z,49.9
2018-05-03T06:12:16.541Z,50.1
2018-05-03T06:13:16.817Z,49.9
2018-05-03T06:14:17.079Z,49.5
2018-05-03T06:15:16.340Z,49.3
2018-05-03T06:16:16.613Z,50.0
2018-05-03T06:17:17.251Z,49.2
2018-05-03T06:18:16.512Z,49.0
2018-05-03T06:19:16.780Z,49.7
2018-05-03T06:20:17.061Z,49.5
2018-05-03T06:21:17.082Z,49.5
2018-05-03T06:22:16.356Z,49.9
2018-05-03T06:23:16.614Z,49.8
2018-05-03T06:24:16.867Z,49.4
2018-05-03T06:25:17.129Z,49.2
2018-05-03T06:26:16.385Z,48.9
2018-05-03T06:27:16.661Z,49.1
2018-05-03T06:28:16.932Z,49.5
2018-05-03T06:29:17.198Z,49.8
2018-05-03T06:30:16.464Z,49.4
2018-05-03T06:31:16.642Z,49.4
2018-05-03T06:32:16.900Z,49.5
2018-05-03T06:33:17.158Z,49.7
2018-05-03T06:34:16.431Z,49.7
2018-05-03T06:35:16.696Z,49.7
2018-05-03T06:36:16.958Z,49.4
2018-05-03T06:37:17.230Z,49.5
2018-05-03T06:38:16.496Z,49.5
2018-05-03T06:39:16.760Z,49.5
2018-05-03T06:40:17.036Z,49.6
2018-05-03T06:41:17.058Z,49.7
2018-05-03T06:42:17.321Z,50.1
2018-05-03T06:43:16.581Z,50.0
2018-05-03T06:44:16.854Z,50.0
2018-05-03T06:45:17.422Z,50.0
2018-05-03T06:46:16.698Z,50.0
2018-05-03T06:47:16.959Z,50.5
2018-05-03T06:48:17.616Z,50.2
2018-05-03T06:49:16.880Z,50.1
2018-05-03T06:50:17.158Z,50.5
2018-05-03T06:51:17.201Z,50.6
2018-05-03T06:52:16.459Z,50.2
2018-05-03T06:53:16.716Z,50.1
2018-05-03T06:54:16.979Z,49.6
2018-05-03T06:55:17.236Z,50.0
2018-05-03T06:56:16.492Z,50.0
2018-05-03T06:57:16.837Z,49.4
2018-05-03T06:58:17.108Z,49.4
2018-05-03T06:59:16.366Z,49.4
2018-05-03T07:00:16.636Z,49.6
2018-05-03T07:01:16.682Z,49.2
2018-05-03T07:02:16.944Z,49.0
2018-05-03T07:03:17.223Z,48.9
2018-05-03T07:04:16.665Z,48.4
2018-05-03T07:05:16.952Z,48.0
2018-05-03T07:06:17.207Z,48.0
2018-05-03T07:07:16.481Z,48.3
2018-05-03T07:08:16.741Z,48.2
2018-05-03T07:09:17.008Z,48.1
2018-05-03T07:10:17.284Z,48.4
2018-05-03T07:11:17.310Z,48.4
2018-05-03T07:12:16.570Z,48.4
2018-05-03T07:13:16.830Z,48.5
2018-05-03T07:14:17.101Z,49.2
2018-05-03T07:15:16.369Z,48.7
2018-05-03T07:16:16.917Z,48.4
2018-05-03T07:17:17.176Z,48.7
2018-05-03T07:18:16.442Z,49.0
2018-05-03T07:19:16.709Z,48.7
2018-05-03T07:20:16.980Z,48.4
2018-05-03T07:21:17.023Z,48.6
2018-05-03T07:22:17.280Z,48.1
2018-05-03T07:23:16.558Z,48.1
2018-05-03T07:24:16.819Z,48.1
2018-05-03T07:25:17.085Z,48.4
2018-05-03T07:26:16.347Z,48.1
2018-05-03T07:27:16.621Z,48.0
2018-05-03T07:28:16.885Z,47.6
2018-05-03T07:29:17.209Z,47.9
2018-05-03T07:30:16.483Z,47.9
2018-05-03T07:31:16.518Z,46.8
2018-05-03T07:32:16.782Z,46.5
2018-05-03T07:33:17.051Z,46.4
2018-05-03T07:34:17.321Z,39.0
2018-05-03T07:35:16.588Z,46.3
2018-05-03T07:36:16.854Z,46.4
2018-05-03T07:37:17.109Z,45.7
2018-05-03T07:38:16.373Z,45.5
2018-05-03T07:39:16.631Z,45.0
2018-05-03T07:40:16.912Z,44.6
2018-05-03T07:41:16.954Z,44.5
2018-05-03T07:42:17.220Z,44.1
2018-05-03T07:43:16.486Z,44.5
2018-05-03T07:44:16.752Z,44.2
2018-05-03T07:45:17.010Z,44.3
2018-05-03T07:46:17.274Z,43.7
2018-05-03T07:47:16.538Z,43.5
2018-05-03T07:48:16.807Z,44.2
2018-05-03T07:49:17.078Z,44.5
2018-05-03T07:50:16.355Z,44.0
2018-05-03T07:51:16.377Z,43.5
2018-05-03T07:52:16.642Z,43.0
2018-05-03T07:53:16.900Z,42.8
2018-05-03T07:54:17.169Z,42.6
2018-05-03T07:55:16.435Z,42.0
2018-05-03T07:56:16.700Z,42.2
2018-05-03T07:57:16.959Z,42.0
2018-05-03T07:58:17.236Z,41.9
2018-05-03T07:59:16.495Z,41.5
2018-05-03T08:00:16.773Z,41.8
2018-05-03T08:01:16.791Z,42.0
2018-05-03T08:02:17.050Z,41.6
2018-05-03T08:03:17.312Z,41.3
2018-05-03T08:04:16.582Z,40.2
2018-05-03T08:05:16.846Z,40.8
2018-05-03T08:06:17.115Z,41.0
2018-05-03T08:07:16.390Z,40.9
2018-05-03T08:08:16.658Z,40.8
2018-05-03T08:09:16.923Z,41.1
2018-05-03T08:10:17.189Z,40.2
2018-05-03T08:11:17.248Z,40.5
2018-05-03T08:12:16.513Z,40.3
2018-05-03T08:13:16.786Z,40.5
2018-05-03T08:14:17.048Z,40.5
2018-05-03T08:15:17.311Z,40.5
2018-05-03T08:16:16.567Z,40.0
2018-05-03T08:17:16.832Z,39.5
2018-05-03T08:18:17.107Z,39.6
2018-05-03T08:19:16.384Z,39.0
2018-05-03T08:20:16.651Z,38.9
2018-05-03T08:21:16.795Z,39.0
2018-05-03T08:22:17.100Z,38.4
2018-05-03T08:23:16.372Z,37.9
2018-05-03T08:24:16.621Z,37.8
2018-05-03T08:25:16.878Z,38.1
2018-05-03T08:26:17.134Z,37.4
2018-05-03T08:27:16.398Z,37.9
2018-05-03T08:28:16.663Z,37.3
2018-05-03T08:29:16.930Z,37.6
2018-05-03T08:30:17.197Z,37.7
2018-05-03T08:31:17.234Z,37.4
2018-05-03T08:32:16.493Z,36.6
2018-05-03T08:33:16.755Z,36.8
2018-05-03T08:34:17.026Z,35.8
2018-05-03T08:35:17.303Z,36.0
2018-05-03T08:36:16.562Z,35.4
2018-05-03T08:37:16.821Z,35.0
2018-05-03T08:38:17.077Z,35.4
2018-05-03T08:39:16.339Z,35.5
2018-05-03T08:40:16.620Z,35.2
2018-05-03T08:41:16.639Z,35.0
2018-05-03T08:42:16.904Z,34.9
2018-05-03T08:43:17.166Z,34.9
2018-05-03T08:44:16.426Z,35.3
2018-05-03T08:45:16.682Z,35.3
2018-05-03T08:46:16.939Z,35.1
2018-05-03T08:47:17.212Z,35.1
2018-05-03T08:48:16.476Z,35.4
2018-05-03T08:49:16.759Z,34.7
2018-05-03T08:50:17.040Z,34.3
2018-05-03T08:51:17.085Z,33.8
2018-05-03T08:52:16.355Z,33.9
2018-05-03T08:53:16.621Z,34.4
2018-05-03T08:54:16.874Z,34.4
2018-05-03T08:55:17.136Z,34.4
2018-05-03T08:56:16.412Z,33.0
2018-05-03T08:57:16.680Z,33.5
2018-05-03T08:58:16.941Z,33.9
2018-05-03T08:59:17.222Z,33.4
2018-05-03T09:00:16.496Z,33.0
2018-05-03T09:01:16.689Z,33.0
2018-05-03T09:02:16.963Z,33.0
2018-05-03T09:03:17.221Z,33.0
2018-05-03T09:04:16.484Z,32.7
2018-05-03T09:05:16.743Z,32.9
2018-05-03T09:06:17.006Z,32.6
2018-05-03T09:07:17.274Z,32.5
2018-05-03T09:08:16.543Z,32.9
2018-05-03T09:09:16.811Z,32.9
2018-05-03T09:10:17.088Z,32.8
2018-05-03T09:11:17.127Z,32.6
2018-05-03T09:12:16.392Z,32.5
2018-05-03T09:13:16.649Z,32.0
2018-05-03T09:14:16.915Z,32.2
2018-05-03T09:15:17.176Z,32.3
2018-05-03T09:16:16.449Z,32.1
2018-05-03T09:17:16.714Z,32.4
2018-05-03T09:18:16.979Z,32.6
2018-05-03T09:19:17.250Z,32.0
2018-05-03T09:20:16.518Z,32.6
2018-05-03T09:21:16.569Z,32.5
2018-05-03T09:22:16.828Z,32.7
2018-05-03T09:23:17.096Z,32.5
2018-05-03T09:24:16.366Z,33.0
2018-05-03T09:25:16.633Z,32.6
2018-05-03T09:26:16.941Z,32.9
2018-05-03T09:27:17.201Z,32.5
2018-05-03T09:28:16.453Z,32.6
2018-05-03T09:29:16.710Z,32.4
2018-05-03T09:30:16.999Z,32.0
2018-05-03T09:31:17.026Z,32.4
2018-05-03T09:32:17.290Z,32.5
2018-05-03T09:33:16.556Z,32.8
2018-05-03T09:34:16.815Z,33.4
2018-05-03T09:35:17.081Z,32.6
2018-05-03T09:36:16.337Z,32.5
2018-05-03T09:37:16.593Z,32.0
2018-05-03T09:38:16.852Z,32.2
2018-05-03T09:39:17.213Z,32.3
2018-05-03T09:40:16.497Z,32.5
2018-05-03T09:41:16.552Z,32.6
2018-05-03T09:42:16.805Z,32.1
2018-05-03T09:43:17.070Z,32.1
2018-05-03T09:44:16.342Z,32.1
2018-05-03T09:45:16.602Z,32.2
2018-05-03T09:46:16.856Z,32.3
2018-05-03T09:47:17.120Z,32.1
2018-05-03T09:48:16.385Z,32.4
2018-05-03T09:49:16.646Z,33.2
2018-05-03T09:50:16.934Z,33.4
2018-05-03T09:51:16.942Z,33.5
2018-05-03T09:52:17.210Z,33.6
2018-05-03T09:53:16.477Z,32.1
2018-05-03T09:54:16.738Z,32.1
2018-05-03T09:55:16.999Z,32.0
2018-05-03T09:56:17.266Z,32.9
2018-05-03T09:57:16.531Z,32.9
2018-05-03T09:58:16.798Z,32.9
2018-05-03T09:59:17.157Z,33.2
2018-05-03T10:00:16.431Z,32.9
2018-05-03T10:01:16.482Z,33.5
2018-05-03T10:02:16.749Z,32.9
2018-05-03T10:03:17.013Z,32.9
2018-05-03T10:04:17.520Z,32.6
2018-05-03T10:05:16.782Z,32.4
2018-05-03T10:06:17.047Z,32.2
2018-05-03T10:07:17.311Z,32.4
2018-05-03T10:08:16.590Z,32.6
2018-05-03T10:09:16.848Z,32.2
2018-05-03T10:10:17.112Z,32.8
2018-05-03T10:11:17.155Z,32.5
2018-05-03T10:12:16.414Z,32.5
2018-05-03T10:13:16.840Z,31.8
2018-05-03T10:14:17.107Z,31.3
2018-05-03T10:15:16.378Z,30.9
2018-05-03T10:16:16.633Z,30.6
2018-05-03T10:17:16.899Z,30.2
2018-05-03T10:18:17.168Z,30.2
2018-05-03T10:19:16.436Z,31.6
2018-05-03T10:20:16.714Z,31.1
2018-05-03T10:21:16.744Z,31.5
2018-05-03T10:22:17.009Z,31.1
2018-05-03T10:23:17.275Z,30.2
2018-05-03T10:24:16.557Z,30.5
2018-05-03T10:25:16.821Z,30.4
2018-05-03T10:26:17.154Z,30.3
2018-05-03T10:27:16.416Z,30.2
2018-05-03T10:28:16.673Z,30.4
2018-05-03T10:29:16.927Z,30.7
2018-05-03T10:30:17.427Z,30.2
2018-05-03T10:31:17.232Z,30.2
2018-05-03T10:32:16.494Z,30.4
2018-05-03T10:33:16.755Z,29.6
2018-05-03T10:34:17.022Z,30.2
2018-05-03T10:35:17.287Z,30.0
2018-05-03T10:36:16.770Z,29.9
2018-05-03T10:37:17.055Z,29.9
2018-05-03T10:38:17.322Z,30.5
2018-05-03T10:39:16.587Z,30.8
2018-05-03T10:40:16.859Z,31.0
2018-05-03T10:41:16.876Z,31.6
2018-05-03T10:42:17.250Z,31.5
2018-05-03T10:43:16.606Z,31.6
2018-05-03T10:44:16.863Z,31.3
2018-05-03T10:45:17.114Z,31.4
2018-05-03T10:46:16.375Z,31.3
2018-05-03T10:47:16.640Z,31.4
2018-05-03T10:48:16.903Z,31.2
2018-05-03T10:49:17.167Z,32.0
2018-05-03T10:50:16.433Z,31.9
2018-05-03T10:51:16.476Z,31.6
2018-05-03T10:52:16.735Z,31.7
2018-05-03T10:53:17.007Z,31.4
2018-05-03T10:54:17.286Z,31.7
2018-05-03T10:55:16.561Z,31.9
2018-05-03T10:56:16.835Z,31.2
2018-05-03T10:57:17.093Z,31.2
2018-05-03T10:58:16.361Z,31.2
2018-05-03T10:59:16.628Z,30.9
2018-05-03T11:00:16.894Z,30.9
2018-05-03T11:01:16.940Z,30.9
2018-05-03T11:02:17.206Z,30.4
2018-05-03T11:03:16.470Z,30.6
2018-05-03T11:04:16.737Z,30.7
2018-05-03T11:05:17.361Z,30.2
2018-05-03T11:06:16.638Z,30.3
2018-05-03T11:07:16.920Z,30.8
2018-05-03T11:08:17.189Z,30.6
2018-05-03T11:09:16.442Z,30.2
2018-05-03T11:10:16.709Z,30.1
2018-05-03T11:11:16.745Z,30.4
2018-05-03T11:12:17.008Z,30.3
2018-05-03T11:13:17.270Z,30.4
2018-05-03T11:14:16.538Z,31.4
2018-05-03T11:15:16.802Z,31.2
2018-05-03T11:16:17.054Z,30.6
2018-05-03T11:17:17.320Z,30.6
2018-05-03T11:18:16.580Z,30.7
2018-05-03T11:19:16.842Z,30.4
2018-05-03T11:20:17.105Z,29.8
2018-05-03T11:21:17.162Z,30.6
2018-05-03T11:22:16.423Z,30.9
2018-05-03T11:23:16.683Z,30.5
2018-05-03T11:24:16.941Z,30.9
2018-05-03T11:25:17.214Z,30.1
2018-05-03T11:26:16.466Z,29.9
2018-05-03T11:27:16.750Z,30.1
2018-05-03T11:28:17.010Z,30.7
2018-05-03T11:29:17.275Z,30.9
2018-05-03T11:30:16.556Z,30.6
2018-05-03T11:31:16.581Z,30.0
2018-05-03T11:32:16.843Z,30.1
2018-05-03T11:33:17.103Z,30.1
2018-05-03T11:34:16.361Z,30.4
2018-05-03T11:35:16.625Z,30.4
2018-05-03T11:36:16.877Z,30.4
2018-05-03T11:37:17.179Z,30.2
2018-05-03T11:38:16.446Z,30.6
2018-05-03T11:39:16.710Z,31.3
2018-05-03T11:40:16.980Z,30.6
2018-05-03T11:41:17.010Z,30.7
2018-05-03T11:42:17.283Z,30.9
2018-05-03T11:43:16.541Z,31.3
2018-05-03T11:44:16.807Z,31.0
2018-05-03T11:45:17.068Z,30.6
2018-05-03T11:46:16.328Z,31.3
2018-05-03T11:47:16.592Z,31.3
2018-05-03T11:48:16.856Z,31.1
2018-05-03T11:49:17.114Z,30.9
2018-05-03T11:50:16.383Z,30.8
2018-05-03T11:51:16.422Z,30.5
2018-05-03T11:52:16.682Z,30.4
2018-05-03T11:53:17.030Z,29.9
2018-05-03T11:54:17.297Z,29.6
2018-05-03T11:55:16.563Z,30.4
2018-05-03T11:56:16.819Z,30.9
2018-05-03T11:57:17.074Z,31.1
2018-05-03T11:58:16.333Z,30.9
2018-05-03T11:59:16.842Z,30.8
2018-05-03T12:00:17.212Z,30.9
2018-05-03T12:01:17.264Z,30.6
2018-05-03T12:02:16.526Z,30.6
2018-05-03T12:03:16.786Z,30.3
2018-05-03T12:04:17.054Z,30.8
2018-05-03T12:05:17.323Z,31.1
2018-05-03T12:06:16.587Z,30.6
2018-05-03T12:07:16.842Z,30.8
2018-05-03T12:08:17.099Z,30.5
2018-05-03T12:09:16.363Z,30.6
2018-05-03T12:10:16.632Z,30.2
2018-05-03T12:11:16.661Z,30.2
2018-05-03T12:12:16.998Z,30.4
2018-05-03T12:13:17.263Z,30.6
2018-05-03T12:14:16.516Z,30.2
2018-05-03T12:15:16.763Z,30.6
2018-05-03T12:16:17.026Z,30.7
2018-05-03T12:17:17.294Z,30.6
2018-05-03T12:18:16.551Z,30.4
2018-05-03T12:19:16.805Z,30.4
2018-05-03T12:20:17.074Z,30.6
2018-05-03T12:21:17.188Z,30.1
2018-05-03T12:22:16.458Z,30.4
2018-05-03T12:23:16.723Z,30.4
2018-05-03T12:24:17.049Z,30.4
2018-05-03T12:25:17.310Z,30.2
2018-05-03T12:26:16.565Z,30.7
2018-05-03T12:27:16.822Z,30.2
2018-05-03T12:28:17.083Z,30.1
2018-05-03T12:29:16.353Z,30.6
2018-05-03T12:30:16.634Z,30.3
2018-05-03T12:31:16.672Z,30.1
2018-05-03T12:32:16.925Z,29.9
2018-05-03T12:33:17.191Z,30.1
2018-05-03T12:34:16.448Z,30.8
2018-05-03T12:35:16.715Z,30.8
2018-05-03T12:36:16.975Z,30.8
2018-05-03T12:37:17.234Z,30.6
2018-05-03T12:38:16.498Z,30.9
2018-05-03T12:39:16.756Z,30.5
2018-05-03T12:40:17.037Z,30.7
2018-05-03T12:41:17.090Z,31.4
2018-05-03T12:42:16.363Z,31.5
2018-05-03T12:43:16.625Z,31.1
2018-05-03T12:44:16.880Z,31.2
2018-05-03T12:45:17.135Z,31.2
2018-05-03T12:46:16.407Z,30.8
2018-05-03T12:47:16.678Z,31.1
2018-05-03T12:48:17.012Z,31.4
2018-05-03T12:49:17.521Z,31.8
2018-05-03T12:50:16.808Z,31.6
2018-05-03T12:51:16.841Z,31.9
2018-05-03T12:52:17.101Z,32.0
2018-05-03T12:53:16.372Z,32.0
2018-05-03T12:54:16.635Z,31.9
2018-05-03T12:55:16.899Z,31.9
2018-05-03T12:56:17.164Z,31.7
2018-05-03T12:57:16.418Z,32.1
2018-05-03T12:58:16.683Z,31.9
2018-05-03T12:59:16.953Z,31.8
2018-05-03T13:00:17.240Z,32.2
2018-05-03T13:01:17.273Z,32.2
2018-05-03T13:02:16.545Z,32.1
2018-05-03T13:03:16.808Z,32.3
2018-05-03T13:04:17.071Z,31.9
2018-05-03T13:05:16.347Z,31.4
2018-05-03T13:06:16.617Z,31.9
2018-05-03T13:07:16.893Z,31.8
2018-05-03T13:08:17.153Z,32.0
2018-05-03T13:09:16.409Z,32.1
2018-05-03T13:10:16.691Z,32.1
2018-05-03T13:11:16.729Z,32.1
2018-05-03T13:12:16.996Z,31.9
2018-05-03T13:13:17.257Z,32.0
2018-05-03T13:14:16.582Z,31.8
2018-05-03T13:15:16.853Z,31.8
2018-05-03T13:16:17.121Z,31.9
2018-05-03T13:17:16.384Z,31.5
2018-05-03T13:18:16.641Z,31.6